| time (UTC) | temp C | wind direction | speed KPH | gust KPH | rain 1hr cm | rain 24hr cm | rain mn cm | humidity % | barometer mb |
| 20260507124605 | 13 | 64 | 16.1 | 24.1 | 0.00 | 0.00 | 0.00 | 41 | 1014.0 |
| 20260507123058 | 13 | 123 | 12.9 | 17.7 | 0.00 | 0.00 | 0.00 | 34 | 1013.7 |
| 20260507121605 | 13 | 156 | 4.8 | 11.3 | 0.00 | 0.00 | 0.00 | 30 | 1013.4 |
| 20260507120050 | 13 | 128 | 6.4 | 16.1 | 0.00 | 0.00 | 0.00 | 27 | 1013.3 |
| 20260507114601 | 14 | 78 | 11.3 | 19.3 | 0.00 | 0.00 | 0.00 | 25 | 1013.1 |
| 20260507113045 | 14 | 51 | 11.3 | 20.9 | 0.00 | 0.00 | 0.00 | 25 | 1013.0 |
| 20260507111542 | 15 | 40 | 19.3 | 30.6 | 0.00 | 0.00 | 0.00 | 25 | 1013.0 |
| 20260507110041 | 15 | 231 | 0.0 | 4.8 | 0.00 | 0.00 | 0.00 | 27 | 1012.5 |
| 20260507104539 | 15 | 173 | 3.2 | 8.0 | 0.00 | 0.00 | 0.00 | 27 | 1012.4 |
| 20260507103037 | 16 | 103 | 1.6 | 11.3 | 0.00 | 0.00 | 0.00 | 28 | 1012.5 |
| 20260507101538 | 15 | 60 | 3.2 | 9.7 | 0.00 | 0.00 | 0.00 | 28 | 1012.5 |
| 20260507100039 | 15 | 67 | 9.7 | 16.1 | 0.00 | 0.00 | 0.00 | 29 | 1012.7 |
| 20260507094537 | 15 | 66 | 6.4 | 8.0 | 0.00 | 0.00 | 0.00 | 29 | 1012.5 |
| 20260507093029 | 16 | 132 | 3.2 | 6.4 | 0.00 | 0.00 | 0.00 | 27 | 1012.5 |
| 20260507091525 | 16 | 132 | 1.6 | 4.8 | 0.00 | 0.00 | 0.00 | 25 | 1012.3 |
| 20260507090023 | 17 | 132 | 1.6 | 6.4 | 0.00 | 0.00 | 0.00 | 22 | 1012.4 |
| 20260507084519 | 17 | 132 | 1.6 | 6.4 | 0.00 | 0.00 | 0.00 | 21 | 1012.5 |
| 20260507083018 | 17 | 269 | 1.6 | 6.4 | 0.00 | 0.00 | 0.00 | 19 | 1012.5 |
| 20260507081533 | 17 | 250 | 0.0 | 3.2 | 0.00 | 0.00 | 0.00 | 19 | 1012.7 |
| 20260507080013 | 17 | 251 | 3.2 | 8.0 | 0.00 | 0.00 | 0.00 | 18 | 1012.8 |
| 20260507074522 | 18 | 270 | 6.4 | 9.7 | 0.00 | 0.00 | 0.00 | 18 | 1012.7 |
| 20260507073008 | 18 | 292 | 11.3 | 14.5 | 0.00 | 0.00 | 0.00 | 17 | 1012.6 |
| 20260507071507 | 18 | 286 | 4.8 | 8.0 | 0.00 | 0.00 | 0.00 | 18 | 1012.6 |
| 20260507070010 | 18 | 267 | 6.4 | 11.3 | 0.00 | 0.00 | 0.00 | 17 | 1012.5 |
| 20260507064501 | 19 | 290 | 3.2 | 8.0 | 0.00 | 0.00 | 0.00 | 18 | 1012.4 |
| 20260507063059 | 19 | 290 | 4.8 | 8.0 | 0.00 | 0.00 | 0.00 | 18 | 1012.4 |
| 20260507061601 | 20 | 290 | 6.4 | 12.9 | 0.00 | 0.00 | 0.00 | 18 | 1012.2 |
| 20260507060058 | 19 | 275 | 6.4 | 11.3 | 0.00 | 0.00 | 0.00 | 19 | 1012.1 |
| 20260507054636 | 20 | 262 | 3.2 | 9.7 | 0.00 | 0.00 | 0.00 | 19 | 1011.9 |
| 20260507053054 | 20 | 300 | 6.4 | 11.3 | 0.00 | 0.00 | 0.00 | 20 | 1011.6 |
| 20260507051552 | 20 | 292 | 6.4 | 8.0 | 0.00 | 0.00 | 0.00 | 20 | 1011.8 |
| 20260507050056 | 20 | 269 | 3.2 | 9.7 | 0.00 | 0.00 | 0.00 | 19 | 1011.8 |
| 20260507044556 | 20 | 300 | 3.2 | 6.4 | 0.00 | 0.00 | 0.00 | 20 | 1011.8 |
| 20260507043050 | 21 | 313 | 1.6 | 4.8 | 0.00 | 0.00 | 0.00 | 19 | 1011.7 |
| 20260507041559 | 22 | 313 | 3.2 | 9.7 | 0.00 | 0.00 | 0.00 | 18 | 1011.4 |
| 20260507040048 | 22 | 331 | 4.8 | 8.0 | 0.00 | 0.00 | 0.00 | 16 | 1011.2 |
| 20260507034556 | 22 | 330 | 4.8 | 14.5 | 0.00 | 0.00 | 0.00 | 17 | 1011.2 |
| 20260507033053 | 22 | 323 | 8.0 | 14.5 | 0.00 | 0.00 | 0.00 | 16 | 1011.0 |
| 20260507031602 | 23 | 336 | 4.8 | 9.7 | 0.00 | 0.00 | 0.00 | 16 | 1010.9 |
| 20260507030053 | 23 | 344 | 4.8 | 12.9 | 0.00 | 0.00 | 0.00 | 16 | 1010.7 |
| 20260507024546 | 23 | 338 | 4.8 | 14.5 | 0.00 | 0.00 | 0.00 | 16 | 1010.3 |
| 20260507023046 | 23 | 328 | 4.8 | 14.5 | 0.00 | 0.00 | 0.00 | 16 | 1010.1 |
| 20260507021544 | 23 | 310 | 11.3 | 17.7 | 0.00 | 0.00 | 0.00 | 16 | 1010.0 |
| 20260507020047 | 23 | 298 | 11.3 | 24.1 | 0.00 | 0.00 | 0.00 | 16 | 1009.7 |
| 20260507014550 | 24 | 301 | 19.3 | 27.4 | 0.00 | 0.00 | 0.00 | 16 | 1009.5 |
| 20260507013045 | 24 | 303 | 14.5 | 19.3 | 0.00 | 0.00 | 0.00 | 16 | 1009.4 |
| 20260507011543 | 24 | 320 | 12.9 | 25.7 | 0.00 | 0.00 | 0.00 | 16 | 1009.3 |
| 20260507010043 | 25 | 303 | 16.1 | 29.0 | 0.00 | 0.00 | 0.00 | 16 | 1009.0 |
| 20260507004539 | 25 | 331 | 19.3 | 27.4 | 0.00 | 0.00 | 0.00 | 16 | 1008.8 |
| 20260507003043 | 25 | 319 | 20.9 | 33.8 | 0.00 | 0.00 | 0.00 | 16 | 1008.7 |
| 20260507001541 | 25 | 306 | 22.5 | 35.4 | 0.00 | 0.00 | 0.00 | 16 | 1008.6 |
| 20260507000041 | 25 | 277 | 20.9 | 25.7 | 0.00 | 0.00 | 0.00 | 16 | 1008.6 |
| 20260506234537 | 25 | 334 | 14.5 | 30.6 | 0.00 | 0.00 | 0.00 | 16 | 1008.3 |
| 20260506233041 | 25 | 330 | 17.7 | 38.6 | 0.00 | 0.00 | 0.00 | 16 | 1008.3 |
| 20260506231535 | 25 | 304 | 19.3 | 41.8 | 0.00 | 0.00 | 0.00 | 16 | 1008.5 |
| 20260506230032 | 25 | 305 | 14.5 | 38.6 | 0.00 | 0.00 | 0.00 | 16 | 1008.5 |
| 20260506224531 | 25 | 321 | 12.9 | 33.8 | 0.00 | 0.00 | 0.00 | 16 | 1008.7 |
| 20260506223029 | 25 | 279 | 29.0 | 41.8 | 0.00 | 0.00 | 0.00 | 16 | 1008.8 |
| 20260506221526 | 24 | 304 | 25.7 | 37.0 | 0.00 | 0.00 | 0.00 | 16 | 1008.9 |
| 20260506220024 | 24 | 311 | 20.9 | 46.7 | 0.00 | 0.00 | 0.00 | 17 | 1008.9 |
| 20260506214522 | 24 | 309 | 20.9 | 38.6 | 0.00 | 0.00 | 0.00 | 17 | 1008.9 |
| 20260506213020 | 24 | 302 | 22.5 | 37.0 | 0.00 | 0.00 | 0.00 | 17 | 1009.2 |
| 20260506211518 | 24 | 300 | 29.0 | 46.7 | 0.00 | 0.00 | 0.00 | 17 | 1009.3 |
| 20260506210017 | 23 | 279 | 30.6 | 45.1 | 0.00 | 0.00 | 0.00 | 17 | 1009.5 |
| 20260506204520 | 23 | 309 | 20.9 | 41.8 | 0.00 | 0.00 | 0.00 | 19 | 1009.7 |
| 20260506203017 | 23 | 251 | 16.1 | 41.8 | 0.00 | 0.00 | 0.00 | 19 | 1009.8 |
| 20260506201517 | 23 | 282 | 27.4 | 46.7 | 0.00 | 0.00 | 0.00 | 19 | 1010.0 |
| 20260506200012 | 23 | 267 | 30.6 | 40.2 | 0.00 | 0.00 | 0.00 | 19 | 1010.2 |
| 20260506194516 | 22 | 309 | 27.4 | 41.8 | 0.00 | 0.00 | 0.00 | 21 | 1010.3 |
| 20260506193009 | 22 | 295 | 19.3 | 35.4 | 0.00 | 0.00 | 0.00 | 21 | 1010.5 |
| 20260506191508 | 22 | 263 | 24.1 | 40.2 | 0.00 | 0.00 | 0.00 | 21 | 1010.6 |
| 20260506190006 | 22 | 301 | 16.1 | 40.2 | 0.00 | 0.00 | 0.00 | 22 | 1010.9 |
| 20260506184504 | 21 | 270 | 22.5 | 53.1 | 0.00 | 0.00 | 0.00 | 23 | 1011.1 |
| 20260506183000 | 21 | 271 | 16.1 | 41.8 | 0.00 | 0.00 | 0.00 | 23 | 1011.1 |
| 20260506181559 | 21 | 294 | 24.1 | 35.4 | 0.00 | 0.00 | 0.00 | 22 | 1011.2 |
| 20260506180105 | 21 | 304 | 30.6 | 40.2 | 0.00 | 0.00 | 0.00 | 24 | 1011.3 |
| 20260506174556 | 21 | 254 | 25.7 | 41.8 | 0.00 | 0.00 | 0.00 | 25 | 1011.4 |
| 20260506173057 | 20 | 286 | 22.5 | 38.6 | 0.00 | 0.00 | 0.00 | 25 | 1011.6 |
| 20260506171551 | 20 | 293 | 16.1 | 35.4 | 0.00 | 0.00 | 0.00 | 29 | 1011.5 |
| 20260506170057 | 20 | 286 | 19.3 | 38.6 | 0.00 | 0.00 | 0.00 | 30 | 1011.4 |
| 20260506164541 | 19 | 261 | 19.3 | 35.4 | 0.00 | 0.00 | 0.00 | 32 | 1011.5 |
| 20260506163056 | 19 | 287 | 22.5 | 32.2 | 0.00 | 0.00 | 0.00 | 33 | 1011.5 |
| 20260506161534 | 19 | 268 | 12.9 | 32.2 | 0.00 | 0.00 | 0.00 | 33 | 1011.5 |
| 20260506160031 | 18 | 313 | 17.7 | 32.2 | 0.00 | 0.00 | 0.00 | 34 | 1011.8 |
| 20260506154526 | 18 | 302 | 12.9 | 29.0 | 0.00 | 0.00 | 0.00 | 35 | 1011.7 |
| 20260506153021 | 18 | 329 | 14.5 | 24.1 | 0.00 | 0.00 | 0.00 | 35 | 1011.8 |
| 20260506151516 | 17 | 340 | 9.7 | 27.4 | 0.00 | 0.00 | 0.00 | 36 | 1011.8 |
| 20260506150012 | 17 | 293 | 12.9 | 22.5 | 0.00 | 0.00 | 0.00 | 37 | 1011.7 |
| 20260506144508 | 16 | 283 | 12.9 | 17.7 | 0.00 | 0.00 | 0.00 | 38 | 1011.9 |
| 20260506143004 | 16 | 300 | 11.3 | 17.7 | 0.00 | 0.00 | 0.00 | 39 | 1011.8 |
| 20260506141559 | 16 | 302 | 9.7 | 17.7 | 0.00 | 0.00 | 0.00 | 40 | 1011.8 |
| 20260506140058 | 15 | 303 | 11.3 | 19.3 | 0.00 | 0.00 | 0.00 | 41 | 1011.7 |
| 20260506134550 | 15 | 265 | 12.9 | 19.3 | 0.00 | 0.00 | 0.00 | 42 | 1011.6 |
| 20260506133045 | 15 | 295 | 14.5 | 19.3 | 0.00 | 0.00 | 0.00 | 42 | 1011.4 |
| 20260506131541 | 15 | 292 | 9.7 | 16.1 | 0.00 | 0.00 | 0.00 | 43 | 1011.4 |
| 20260506130037 | 14 | 316 | 8.0 | 16.1 | 0.00 | 0.00 | 0.00 | 43 | 1011.1 |